Terminal Aerodrome Forecast
Issued by NWS

Home | Current Version | Previous Version | Text Only | Print | Product List | Glossary On
Versions: 1 2 3 4 5 6 7 8 9 10 11 12 13 14 15 16
000
FTUS44 KCRP 251643 AAB
TAFLRD
TAF AMD
KLRD 251643Z 2517/2612 13012G22KT P6SM BKN050 BKN150
     FM260100 11015G20KT P6SM BKN040 BKN120
      TEMPO 2601/2605 4SM TSRA BKN030CB
     FM260500 13012KT P6SM BKN025 OVC080
      TEMPO 2605/2609 4SM TSRA OVC015CB=

USA.gov is the U.S. government's official web portal to all federal, state and local government web resources and services.